sensor_id;sensor_type;location;lat;lon;timestamp;pressure;altitude;pressure_sealevel;temperature;humidity
75221;BME280;63802;53.232;6.570;2023-05-10T00:01:55;100793.63;;;12.14;100.00
75221;BME280;63802;53.232;6.570;2023-05-10T00:04:21;100811.78;;;12.26;100.00
75221;BME280;63802;53.232;6.570;2023-05-10T00:06:46;100814.13;;;12.27;100.00
75221;BME280;63802;53.232;6.570;2023-05-10T00:09:12;100804.63;;;12.18;100.00
75221;BME280;63802;53.232;6.570;2023-05-10T00:11:37;100814.09;;;12.24;100.00
75221;BME280;63802;53.232;6.570;2023-05-10T00:14:03;100804.63;;;12.18;100.00
75221;BME280;63802;53.232;6.570;2023-05-10T00:16:28;100777.06;;;12.00;100.00
75221;BME280;63802;53.232;6.570;2023-05-10T00:18:54;100804.63;;;12.18;100.00
75221;BME280;63802;53.232;6.570;2023-05-10T00:21:19;100781.84;;;12.06;100.00
75221;BME280;63802;53.232;6.570;2023-05-10T00:23:44;100803.84;;;12.17;100.00
75221;BME280;63802;53.232;6.570;2023-05-10T00:26:10;100799.91;;;12.15;100.00
75221;BME280;63802;53.232;6.570;2023-05-10T00:28:39;100800.66;;;12.12;100.00
75221;BME280;63802;53.232;6.570;2023-05-10T00:31:04;100800.22;;;12.09;100.00
75221;BME280;63802;53.232;6.570;2023-05-10T00:33:30;100796.72;;;12.09;100.00
75221;BME280;63802;53.232;6.570;2023-05-10T00:35:55;100791.94;;;12.02;100.00
75221;BME280;63802;53.232;6.570;2023-05-10T00:38:21;100775.03;;;11.93;100.00
75221;BME280;63802;53.232;6.570;2023-05-10T00:40:46;100787.25;;;12.03;100.00
75221;BME280;63802;53.232;6.570;2023-05-10T00:43:12;100793.13;;;12.01;100.00
75221;BME280;63802;53.232;6.570;2023-05-10T00:45:38;100788.38;;;11.98;100.00
75221;BME280;63802;53.232;6.570;2023-05-10T00:48:05;100764.44;;;11.88;100.00
75221;BME280;63802;53.232;6.570;2023-05-10T00:50:32;100776.66;;;11.98;100.00
75221;BME280;63802;53.232;6.570;2023-05-10T00:52:59;100742.44;;;11.78;100.00
75221;BME280;63802;53.232;6.570;2023-05-10T00:55:26;100776.31;;;11.99;100.00
75221;BME280;63802;53.232;6.570;2023-05-10T00:57:52;100776.63;;;11.94;100.00
75221;BME280;63802;53.232;6.570;2023-05-10T01:00:18;100780.19;;;11.98;100.00
75221;BME280;63802;53.232;6.570;2023-05-10T01:02:45;100782.50;;;11.96;100.00
75221;BME280;63802;53.232;6.570;2023-05-10T01:05:11;100763.63;;;11.88;100.00
75221;BME280;63802;53.232;6.570;2023-05-10T01:07:36;100781.78;;;11.99;100.00
75221;BME280;63802;53.232;6.570;2023-05-10T01:10:02;100788.38;;;11.98;100.00
75221;BME280;63802;53.232;6.570;2023-05-10T01:12:28;100778.19;;;11.95;100.00
75221;BME280;63802;53.232;6.570;2023-05-10T01:14:54;100766.84;;;11.93;100.00
75221;BME280;63802;53.232;6.570;2023-05-10T01:17:21;100777.03;;;11.96;100.00
75221;BME280;63802;53.232;6.570;2023-05-10T01:19:47;100762.72;;;11.77;100.00
75221;BME280;63802;53.232;6.570;2023-05-10T01:30:57;100782.00;;;11.87;100.00
75221;BME280;63802;53.232;6.570;2023-05-10T01:41:36;100790.13;;;11.80;100.00
75221;BME280;63802;53.232;6.570;2023-05-10T01:44:18;100785.38;;;11.77;100.00
75221;BME280;63802;53.232;6.570;2023-05-10T01:46:53;100778.66;;;11.71;100.00
75221;BME280;63802;53.232;6.570;2023-05-10T01:49:24;100785.38;;;11.77;100.00
75221;BME280;63802;53.232;6.570;2023-05-10T01:51:53;100784.56;;;11.73;100.00
75221;BME280;63802;53.232;6.570;2023-05-10T01:54:21;100779.09;;;11.73;100.00
75221;BME280;63802;53.232;6.570;2023-05-10T01:56:52;100785.31;;;11.70;100.00
75221;BME280;63802;53.232;6.570;2023-05-10T01:59:21;100792.78;;;11.73;100.00
75221;BME280;63802;53.232;6.570;2023-05-10T02:01:48;100781.28;;;11.64;100.00
75221;BME280;63802;53.232;6.570;2023-05-10T02:04:16;100787.72;;;11.75;100.00
75221;BME280;63802;53.232;6.570;2023-05-10T02:06:43;100780.13;;;11.65;100.00
75221;BME280;63802;53.232;6.570;2023-05-10T02:09:11;100782.16;;;11.68;100.00
75221;BME280;63802;53.232;6.570;2023-05-10T02:11:43;100789.19;;;11.69;100.00
75221;BME280;63802;53.232;6.570;2023-05-10T02:14:09;100779.72;;;11.63;100.00
75221;BME280;63802;53.232;6.570;2023-05-10T02:16:37;100789.06;;;11.62;100.00
75221;BME280;63802;53.232;6.570;2023-05-10T02:19:04;100776.50;;;11.58;100.00
75221;BME280;63802;53.232;6.570;2023-05-10T02:21:32;100786.75;;;11.64;100.00
75221;BME280;63802;53.232;6.570;2023-05-10T02:23:59;100793.78;;;11.65;100.00
75221;BME280;63802;53.232;6.570;2023-05-10T02:26:27;100790.66;;;11.63;100.00
75221;BME280;63802;53.232;6.570;2023-05-10T02:28:54;100783.50;;;11.55;100.00
75221;BME280;63802;53.232;6.570;2023-05-10T02:31:20;100785.84;;;11.57;100.00
75221;BME280;63802;53.232;6.570;2023-05-10T02:33:48;100782.75;;;11.58;100.00
75221;BME280;63802;53.232;6.570;2023-05-10T02:36:14;100770.94;;;11.51;100.00
75221;BME280;63802;53.232;6.570;2023-05-10T02:38:40;100771.72;;;11.51;100.00
75221;BME280;63802;53.232;6.570;2023-05-10T02:41:08;100792.97;;;11.61;100.00
75221;BME280;63802;53.232;6.570;2023-05-10T02:43:34;100785.53;;;11.62;100.00
75221;BME280;63802;53.232;6.570;2023-05-10T02:46:01;100789.06;;;11.62;100.00
75221;BME280;63802;53.232;6.570;2023-05-10T02:48:27;100770.22;;;11.54;100.00
75221;BME280;63802;53.232;6.570;2023-05-10T02:50:55;100767.09;;;11.55;100.00
75221;BME280;63802;53.232;6.570;2023-05-10T02:53:25;100768.69;;;11.56;100.00
75221;BME280;63802;53.232;6.570;2023-05-10T02:55:57;100765.94;;;11.56;100.00
75221;BME280;63802;53.232;6.570;2023-05-10T02:58:24;100774.50;;;11.55;100.00
75221;BME280;63802;53.232;6.570;2023-05-10T03:00:50;100758.75;;;11.44;100.00
75221;BME280;63802;53.232;6.570;2023-05-10T03:03:15;100776.88;;;11.56;100.00
75221;BME280;63802;53.232;6.570;2023-05-10T03:05:41;100781.91;;;11.54;100.00
75221;BME280;63802;53.232;6.570;2023-05-10T03:08:06;100779.63;;;11.56;100.00
75221;BME280;63802;53.232;6.570;2023-05-10T03:10:33;100778.44;;;11.57;100.00
75221;BME280;63802;53.232;6.570;2023-05-10T03:15:56;100775.72;;;11.57;100.00
75221;BME280;63802;53.232;6.570;2023-05-10T03:18:29;100784.28;;;11.56;100.00
75221;BME280;63802;53.232;6.570;2023-05-10T03:20:59;100762.59;;;11.40;100.00
75221;BME280;63802;53.232;6.570;2023-05-10T03:23:33;100766.19;;;11.44;100.00
75221;BME280;63802;53.232;6.570;2023-05-10T03:26:00;100777.31;;;11.58;100.00
75221;BME280;63802;53.232;6.570;2023-05-10T03:28:26;100785.91;;;11.60;100.00
75221;BME280;63802;53.232;6.570;2023-05-10T03:30:53;100784.31;;;11.59;100.00
75221;BME280;63802;53.232;6.570;2023-05-10T03:33:20;100782.69;;;11.55;100.00
75221;BME280;63802;53.232;6.570;2023-05-10T03:35:46;100791.31;;;11.57;100.00
75221;BME280;63802;53.232;6.570;2023-05-10T03:38:14;100781.16;;;11.54;100.00
75221;BME280;63802;53.232;6.570;2023-05-10T03:40:40;100776.44;;;11.54;100.00
75221;BME280;63802;53.232;6.570;2023-05-10T03:43:05;100784.28;;;11.56;100.00
75221;BME280;63802;53.232;6.570;2023-05-10T03:45:31;100790.56;;;11.56;100.00
75221;BME280;63802;53.232;6.570;2023-05-10T03:47:57;100791.28;;;11.53;100.00
75221;BME280;63802;53.232;6.570;2023-05-10T03:50:23;100792.84;;;11.54;100.00
75221;BME280;63802;53.232;6.570;2023-05-10T03:52:49;100779.94;;;11.51;100.00
75221;BME280;63802;53.232;6.570;2023-05-10T03:55:14;100791.28;;;11.53;100.00
75221;BME280;63802;53.232;6.570;2023-05-10T03:57:40;100787.75;;;11.53;100.00
75221;BME280;63802;53.232;6.570;2023-05-10T04:00:06;100783.41;;;11.48;100.00
75221;BME280;63802;53.232;6.570;2023-05-10T04:02:32;100799.09;;;11.55;100.00
75221;BME280;63802;53.232;6.570;2023-05-10T04:04:58;100786.94;;;11.49;100.00
75221;BME280;63802;53.232;6.570;2023-05-10T04:07:23;100794.31;;;11.48;100.00
75221;BME280;63802;53.232;6.570;2023-05-10T04:09:49;100784.44;;;11.40;100.00
75221;BME280;63802;53.232;6.570;2023-05-10T04:12:14;100788.75;;;11.41;100.00
75221;BME280;63802;53.232;6.570;2023-05-10T04:14:39;100776.91;;;11.30;100.00
75221;BME280;63802;53.232;6.570;2023-05-10T04:17:05;100778.53;;;11.34;100.00
75221;BME280;63802;53.232;6.570;2023-05-10T04:19:31;100783.50;;;11.29;100.00
75221;BME280;63802;53.232;6.570;2023-05-10T04:21:58;100794.91;;;11.34;100.00
75221;BME280;63802;53.232;6.570;2023-05-10T04:24:24;100804.69;;;11.35;100.00
75221;BME280;63802;53.232;6.570;2023-05-10T04:26:49;100798.88;;;11.37;100.00
75221;BME280;63802;53.232;6.570;2023-05-10T04:29:15;100801.16;;;11.35;100.00
75221;BME280;63802;53.232;6.570;2023-05-10T04:31:41;100771.19;;;11.16;100.00
75221;BME280;63802;53.232;6.570;2023-05-10T04:34:06;100801.91;;;11.32;100.00
75221;BME280;63802;53.232;6.570;2023-05-10T04:36:32;100795.59;;;11.28;100.00
75221;BME280;63802;53.232;6.570;2023-05-10T04:39:02;100790.88;;;11.25;100.00
75221;BME280;63802;53.232;6.570;2023-05-10T04:41:28;100788.88;;;11.22;100.00
75221;BME280;63802;53.232;6.570;2023-05-10T04:43:55;100807.00;;;11.33;100.00
75221;BME280;63802;53.232;6.570;2023-05-10T04:46:20;100805.06;;;11.34;100.00
75221;BME280;63802;53.232;6.570;2023-05-10T04:48:46;100815.97;;;11.34;100.00
75221;BME280;63802;53.232;6.570;2023-05-10T04:51:11;100812.03;;;11.31;100.00
75221;BME280;63802;53.232;6.570;2023-05-10T04:53:37;100815.97;;;11.34;100.00
75221;BME280;63802;53.232;6.570;2023-05-10T04:56:03;100813.19;;;11.30;100.00
75221;BME280;63802;53.232;6.570;2023-05-10T04:58:29;100812.53;;;11.37;100.00
75221;BME280;63802;53.232;6.570;2023-05-10T05:00:55;100820.72;;;11.37;100.00
75221;BME280;63802;53.232;6.570;2023-05-10T05:03:20;100818.28;;;11.32;100.00
75221;BME280;63802;53.232;6.570;2023-05-10T05:05:45;100823.88;;;11.39;100.00
75221;BME280;63802;53.232;6.570;2023-05-10T05:08:11;100829.75;;;11.41;100.00
75221;BME280;63802;53.232;6.570;2023-05-10T05:10:36;100833.31;;;11.45;100.00
75221;BME280;63802;53.232;6.570;2023-05-10T05:13:02;100832.47;;;11.41;100.00
75221;BME280;63802;53.232;6.570;2023-05-10T05:15:27;100835.59;;;11.39;100.00
75221;BME280;63802;53.232;6.570;2023-05-10T05:17:53;100839.88;;;11.40;100.00
75221;BME280;63802;53.232;6.570;2023-05-10T05:20:18;100837.22;;;11.44;100.00
75221;BME280;63802;53.232;6.570;2023-05-10T05:22:44;100838.78;;;11.45;100.00
75221;BME280;63802;53.232;6.570;2023-05-10T05:25:10;100814.28;;;11.26;100.00
75221;BME280;63802;53.232;6.570;2023-05-10T05:27:37;100841.50;;;11.45;100.00
75221;BME280;63802;53.232;6.570;2023-05-10T05:30:02;100826.19;;;11.37;100.00
75221;BME280;63802;53.232;6.570;2023-05-10T05:32:28;100848.25;;;11.51;100.00
75221;BME280;63802;53.232;6.570;2023-05-10T05:34:53;100843.50;;;11.48;100.00
75221;BME280;63802;53.232;6.570;2023-05-10T05:37:20;100845.88;;;11.50;100.00
75221;BME280;63802;53.232;6.570;2023-05-10T05:39:46;100847.03;;;11.49;100.00
75221;BME280;63802;53.232;6.570;2023-05-10T05:42:12;100851.41;;;11.53;100.00
75221;BME280;63802;53.232;6.570;2023-05-10T05:44:38;100847.03;;;11.49;100.00
75221;BME280;63802;53.232;6.570;2023-05-10T05:47:04;100858.88;;;11.56;100.00
75221;BME280;63802;53.232;6.570;2023-05-10T05:49:30;100851.81;;;11.55;100.00
75221;BME280;63802;53.232;6.570;2023-05-10T05:52:00;100858.50;;;11.58;100.00
75221;BME280;63802;53.232;6.570;2023-05-10T05:54:29;100846.63;;;11.47;100.00
75221;BME280;63802;53.232;6.570;2023-05-10T05:56:56;100853.72;;;11.51;100.00
75221;BME280;63802;53.232;6.570;2023-05-10T05:59:22;100858.88;;;11.56;100.00
75221;BME280;63802;53.232;6.570;2023-05-10T06:01:47;100866.75;;;11.61;100.00
75221;BME280;63802;53.232;6.570;2023-05-10T06:04:12;100846.66;;;11.50;100.00
75221;BME280;63802;53.232;6.570;2023-05-10T06:06:38;100859.38;;;11.65;100.00
75221;BME280;63802;53.232;6.570;2023-05-10T06:09:03;100881.41;;;11.72;100.00
75221;BME280;63802;53.232;6.570;2023-05-10T06:11:29;100867.06;;;11.56;100.00
75221;BME280;63802;53.232;6.570;2023-05-10T06:13:57;100889.19;;;11.70;100.00
75221;BME280;63802;53.232;6.570;2023-05-10T06:16:22;100882.13;;;11.69;100.00
75221;BME280;63802;53.232;6.570;2023-05-10T06:18:48;100870.22;;;11.58;100.00
75221;BME280;63802;53.232;6.570;2023-05-10T06:21:14;100884.06;;;11.69;100.00
75221;BME280;63802;53.232;6.570;2023-05-10T06:23:40;100878.03;;;11.60;100.00
75221;BME280;63802;53.232;6.570;2023-05-10T06:26:05;100896.22;;;11.71;100.00
75221;BME280;63802;53.232;6.570;2023-05-10T06:28:31;100899.56;;;11.61;100.00
75221;BME280;63802;53.232;6.570;2023-05-10T06:30:59;100898.34;;;11.59;100.00
75221;BME280;63802;53.232;6.570;2023-05-10T06:33:24;100907.38;;;11.63;100.00
75221;BME280;63802;53.232;6.570;2023-05-10T06:35:50;100905.75;;;11.58;100.00
75221;BME280;63802;53.232;6.570;2023-05-10T06:38:15;100887.97;;;11.45;100.00
75221;BME280;63802;53.232;6.570;2023-05-10T06:40:42;100911.63;;;11.60;100.00
75221;BME280;63802;53.232;6.570;2023-05-10T06:43:08;100911.56;;;11.57;100.00
75221;BME280;63802;53.232;6.570;2023-05-10T06:45:33;100932.59;;;11.53;100.00
75221;BME280;63802;53.232;6.570;2023-05-10T06:47:59;100922.22;;;11.39;100.00
75221;BME280;63802;53.232;6.570;2023-05-10T06:50:25;100904.38;;;11.22;100.00
75221;BME280;63802;53.232;6.570;2023-05-10T06:52:50;100935.50;;;11.40;100.00
75221;BME280;63802;53.232;6.570;2023-05-10T06:55:16;100915.44;;;11.29;100.00
75221;BME280;63802;53.232;6.570;2023-05-10T06:57:41;100941.06;;;11.44;100.00
75221;BME280;63802;53.232;6.570;2023-05-10T07:00:10;100924.53;;;11.37;100.00
75221;BME280;63802;53.232;6.570;2023-05-10T07:02:35;100939.88;;;11.45;100.00
75221;BME280;63802;53.232;6.570;2023-05-10T07:05:01;100912.59;;;11.22;100.00
75221;BME280;63802;53.232;6.570;2023-05-10T07:07:27;100929.56;;;11.35;100.00
75221;BME280;63802;53.232;6.570;2023-05-10T07:09:53;100938.31;;;11.44;100.00
75221;BME280;63802;53.232;6.570;2023-05-10T07:12:18;100906.75;;;11.24;100.00
75221;BME280;63802;53.232;6.570;2023-05-10T07:14:43;100954.41;;;11.49;100.00
75221;BME280;63802;53.232;6.570;2023-05-10T07:17:11;100924.84;;;11.32;100.00
75221;BME280;63802;53.232;6.570;2023-05-10T07:19:37;100947.25;;;11.41;100.00
75221;BME280;63802;53.232;6.570;2023-05-10T07:22:02;100938.66;;;11.42;100.00
75221;BME280;63802;53.232;6.570;2023-05-10T07:24:28;100954.41;;;11.49;100.00
75221;BME280;63802;53.232;6.570;2023-05-10T07:26:53;100937.94;;;11.45;100.00
75221;BME280;63802;53.232;6.570;2023-05-10T07:29:18;100949.06;;;11.56;100.00
75221;BME280;63802;53.232;6.570;2023-05-10T07:31:44;100954.78;;;11.70;100.00
75221;BME280;63802;53.232;6.570;2023-05-10T07:34:09;100961.09;;;11.74;100.00
75221;BME280;63802;53.232;6.570;2023-05-10T07:36:35;100954.53;;;11.79;100.00
75221;BME280;63802;53.232;6.570;2023-05-10T07:39:01;100977.09;;;11.98;100.00
75221;BME280;63802;53.232;6.570;2023-05-10T07:41:26;100937.88;;;11.87;100.00
75221;BME280;63802;53.232;6.570;2023-05-10T07:43:54;100971.84;;;12.13;100.00
75221;BME280;63802;53.232;6.570;2023-05-10T07:46:19;100975.28;;;12.09;100.00
75221;BME280;63802;53.232;6.570;2023-05-10T07:48:45;100939.94;;;11.97;100.00
75221;BME280;63802;53.232;6.570;2023-05-10T07:51:11;100950.25;;;12.07;100.00
75221;BME280;63802;53.232;6.570;2023-05-10T07:53:37;100976.88;;;12.10;100.00
75221;BME280;63802;53.232;6.570;2023-05-10T07:56:25;100999.59;;;12.15;100.00
75221;BME280;63802;53.232;6.570;2023-05-10T07:58:55;100983.50;;;12.09;100.00
75221;BME280;63802;53.232;6.570;2023-05-10T08:01:21;101002.75;;;12.17;100.00
75221;BME280;63802;53.232;6.570;2023-05-10T08:03:47;100972.34;;;11.95;100.00
75221;BME280;63802;53.232;6.570;2023-05-10T08:06:14;101000.78;;;12.14;100.00
75221;BME280;63802;53.232;6.570;2023-05-10T08:08:40;101001.88;;;12.09;100.00
75221;BME280;63802;53.232;6.570;2023-05-10T08:11:05;100997.19;;;12.09;100.00
75221;BME280;63802;53.232;6.570;2023-05-10T08:13:31;101006.25;;;12.14;100.00
75221;BME280;63802;53.232;6.570;2023-05-10T08:15:56;100983.78;;;12.01;100.00
75221;BME280;63802;53.232;6.570;2023-05-10T08:18:22;101022.25;;;12.12;100.00
75221;BME280;63802;53.232;6.570;2023-05-10T08:20:47;101013.25;;;12.11;100.00
75221;BME280;63802;53.232;6.570;2023-05-10T08:23:12;101022.78;;;12.21;100.00
75221;BME280;63802;53.232;6.570;2023-05-10T08:25:38;101012.94;;;12.16;100.00
75221;BME280;63802;53.232;6.570;2023-05-10T08:28:04;101010.09;;;12.09;100.00
75221;BME280;63802;53.232;6.570;2023-05-10T08:30:29;101011.66;;;12.10;100.00
75221;BME280;63802;53.232;6.570;2023-05-10T08:32:55;101012.38;;;12.07;100.00
75221;BME280;63802;53.232;6.570;2023-05-10T08:35:20;101034.50;;;12.21;100.00
75221;BME280;63802;53.232;6.570;2023-05-10T08:37:45;101025.91;;;12.23;100.00
75221;BME280;63802;53.232;6.570;2023-05-10T08:40:11;101027.38;;;12.17;100.00
75221;BME280;63802;53.232;6.570;2023-05-10T08:42:40;101050.97;;;12.25;100.00
75221;BME280;63802;53.232;6.570;2023-05-10T08:45:09;101048.59;;;12.23;100.00
75221;BME280;63802;53.232;6.570;2023-05-10T08:47:37;101051.78;;;12.29;100.00
75221;BME280;63802;53.232;6.570;2023-05-10T08:50:03;101032.13;;;12.20;100.00
75221;BME280;63802;53.232;6.570;2023-05-10T08:52:30;101055.75;;;12.31;100.00
75221;BME280;63802;53.232;6.570;2023-05-10T08:54:55;101049.34;;;12.20;100.00
75221;BME280;63802;53.232;6.570;2023-05-10T08:57:20;101049.34;;;12.20;100.00
75221;BME280;63802;53.232;6.570;2023-05-10T08:59:46;101072.13;;;12.28;100.00
75221;BME280;63802;53.232;6.570;2023-05-10T09:02:13;101078.31;;;12.25;100.00
75221;BME280;63802;53.232;6.570;2023-05-10T09:04:39;101062.63;;;12.22;100.00
75221;BME280;63802;53.232;6.570;2023-05-10T09:07:05;101055.19;;;12.19;100.00
75221;BME280;63802;53.232;6.570;2023-05-10T09:09:31;101075.00;;;12.38;100.00
75221;BME280;63802;53.232;6.570;2023-05-10T09:11:57;101055.72;;;12.28;100.00
75221;BME280;63802;53.232;6.570;2023-05-10T09:14:23;101081.78;;;12.48;100.00
75221;BME280;63802;53.232;6.570;2023-05-10T09:16:50;101076.56;;;12.62;100.00
75221;BME280;63802;53.232;6.570;2023-05-10T09:19:15;101074.41;;;12.78;100.00
75221;BME280;63802;53.232;6.570;2023-05-10T09:21:41;101072.88;;;12.81;100.00
75221;BME280;63802;53.232;6.570;2023-05-10T09:24:07;101075.75;;;12.91;100.00
75221;BME280;63802;53.232;6.570;2023-05-10T09:26:34;101099.47;;;13.06;100.00
75221;BME280;63802;53.232;6.570;2023-05-10T09:29:01;101072.47;;;13.08;100.00
75221;BME280;63802;53.232;6.570;2023-05-10T09:31:49;101104.13;;;13.35;100.00
75221;BME280;63802;53.232;6.570;2023-05-10T09:34:29;101094.06;;;13.47;100.00
75221;BME280;63802;53.232;6.570;2023-05-10T09:36:56;101088.56;;;13.43;100.00
75221;BME280;63802;53.232;6.570;2023-05-10T09:39:34;101104.28;;;13.50;100.00
75221;BME280;63802;53.232;6.570;2023-05-10T09:42:02;101091.91;;;13.29;100.00
75221;BME280;63802;53.232;6.570;2023-05-10T09:44:29;101107.69;;;13.39;100.00
75221;BME280;63802;53.232;6.570;2023-05-10T09:46:55;101090.81;;;13.34;100.00
75221;BME280;63802;53.232;6.570;2023-05-10T09:49:21;101099.72;;;13.27;100.00
75221;BME280;63802;53.232;6.570;2023-05-10T09:51:47;101100.09;;;13.26;100.00
75221;BME280;63802;53.232;6.570;2023-05-10T09:54:15;101104.16;;;13.39;100.00
75221;BME280;63802;53.232;6.570;2023-05-10T09:56:41;101091.00;;;13.18;100.00
75221;BME280;63802;53.232;6.570;2023-05-10T09:59:10;101101.59;;;13.20;100.00
75221;BME280;63802;53.232;6.570;2023-05-10T10:01:37;101117.19;;;13.12;100.00
75221;BME280;63802;53.232;6.570;2023-05-10T10:04:06;101087.34;;;13.07;100.00
75221;BME280;63802;53.232;6.570;2023-05-10T10:06:39;101117.44;;;13.33;100.00
75221;BME280;63802;53.232;6.570;2023-05-10T10:09:08;101124.84;;;13.66;100.00
75221;BME280;63802;53.232;6.570;2023-05-10T10:11:36;101111.63;;;13.75;100.00
75221;BME280;63802;53.232;6.570;2023-05-10T10:14:06;101113.22;;;13.80;100.00
75221;BME280;63802;53.232;6.570;2023-05-10T10:16:32;101116.66;;;14.13;100.00
75221;BME280;63802;53.232;6.570;2023-05-10T10:18:58;101116.53;;;14.40;100.00
75221;BME280;63802;53.232;6.570;2023-05-10T10:21:23;101132.78;;;14.62;100.00
75221;BME280;63802;53.232;6.570;2023-05-10T10:23:49;101132.78;;;14.62;100.00
75221;BME280;63802;53.232;6.570;2023-05-10T10:26:17;101140.69;;;14.71;100.00
75221;BME280;63802;53.232;6.570;2023-05-10T10:31:41;101151.56;;;14.53;100.00
75221;BME280;63802;53.232;6.570;2023-05-10T10:34:10;101159.50;;;14.65;100.00
75221;BME280;63802;53.232;6.570;2023-05-10T10:36:46;101156.34;;;14.67;100.00
75221;BME280;63802;53.232;6.570;2023-05-10T10:39:12;101158.09;;;14.93;100.00
75221;BME280;63802;53.232;6.570;2023-05-10T10:41:41;101159.63;;;14.87;100.00
75221;BME280;63802;53.232;6.570;2023-05-10T10:52:28;101157.81;;;15.08;97.74
75221;BME280;63802;53.232;6.570;2023-05-10T10:57:47;101150.75;;;15.11;97.25
75221;BME280;63802;53.232;6.570;2023-05-10T11:03:13;101156.41;;;14.70;97.41
75221;BME280;63802;53.232;6.570;2023-05-10T11:11:02;101173.41;;;14.94;99.55
75221;BME280;63802;53.232;6.570;2023-05-10T11:16:18;101180.06;;;14.93;99.13
75221;BME280;63802;53.232;6.570;2023-05-10T11:18:53;101176.97;;;14.98;99.26
75221;BME280;63802;53.232;6.570;2023-05-10T11:21:19;101176.69;;;15.17;98.97
75221;BME280;63802;53.232;6.570;2023-05-10T11:23:48;101175.69;;;15.46;98.82
75221;BME280;63802;53.232;6.570;2023-05-10T11:26:14;101180.50;;;15.67;97.14
75221;BME280;63802;53.232;6.570;2023-05-10T11:28:49;101177.50;;;15.21;96.65
75221;BME280;63802;53.232;6.570;2023-05-10T11:31:19;101159.06;;;15.25;95.98
75221;BME280;63802;53.232;6.570;2023-05-10T11:33:46;101173.19;;;15.20;95.78
75221;BME280;63802;53.232;6.570;2023-05-10T11:36:17;101187.69;;;15.17;95.42
75221;BME280;63802;53.232;6.570;2023-05-10T11:38:43;101189.63;;;15.13;95.48
75221;BME280;63802;53.232;6.570;2023-05-10T11:41:10;101187.28;;;15.15;95.05
75221;BME280;63802;53.232;6.570;2023-05-10T11:43:37;101198.34;;;15.25;95.53
75221;BME280;63802;53.232;6.570;2023-05-10T11:46:12;101192.97;;;15.50;95.53
75221;BME280;63802;53.232;6.570;2023-05-10T11:48:42;101195.41;;;15.62;95.15
75221;BME280;63802;53.232;6.570;2023-05-10T11:51:08;101204.16;;;15.92;95.45
75221;BME280;63802;53.232;6.570;2023-05-10T11:53:35;101212.41;;;15.96;94.25
75221;BME280;63802;53.232;6.570;2023-05-10T11:56:07;101194.28;;;15.77;92.40
75221;BME280;63802;53.232;6.570;2023-05-10T11:58:33;101203.25;;;15.60;91.15
75221;BME280;63802;53.232;6.570;2023-05-10T12:01:00;101219.72;;;15.53;92.04
75221;BME280;63802;53.232;6.570;2023-05-10T12:03:27;101215.38;;;15.49;93.47
75221;BME280;63802;53.232;6.570;2023-05-10T12:05:54;101218.78;;;15.28;93.57
75221;BME280;63802;53.232;6.570;2023-05-10T12:08:22;101213.53;;;15.02;93.71
75221;BME280;63802;53.232;6.570;2023-05-10T12:10:48;101217.78;;;14.92;94.50
75221;BME280;63802;53.232;6.570;2023-05-10T12:13:14;101200.13;;;14.46;94.92
75221;BME280;63802;53.232;6.570;2023-05-10T12:15:41;101200.44;;;14.37;95.53
75221;BME280;63802;53.232;6.570;2023-05-10T12:18:14;101215.75;;;14.35;95.62
75221;BME280;63802;53.232;6.570;2023-05-10T12:20:40;101212.38;;;14.15;96.17
75221;BME280;63802;53.232;6.570;2023-05-10T12:23:08;101235.13;;;14.16;96.95
75221;BME280;63802;53.232;6.570;2023-05-10T12:25:35;101228.78;;;14.08;97.87
75221;BME280;63802;53.232;6.570;2023-05-10T12:28:08;101212.97;;;13.98;98.08
75221;BME280;63802;53.232;6.570;2023-05-10T12:30:35;101236.75;;;14.20;98.96
75221;BME280;63802;53.232;6.570;2023-05-10T12:33:12;101230.56;;;14.30;99.31
75221;BME280;63802;53.232;6.570;2023-05-10T12:35:52;101240.06;;;14.36;99.62
75221;BME280;63802;53.232;6.570;2023-05-10T12:38:38;101237.59;;;14.28;100.00
75221;BME280;63802;53.232;6.570;2023-05-10T12:41:09;101247.22;;;14.44;100.00
75221;BME280;63802;53.232;6.570;2023-05-10T12:43:35;101240.88;;;14.40;100.00
75221;BME280;63802;53.232;6.570;2023-05-10T12:46:07;101248.78;;;14.45;100.00
75221;BME280;63802;53.232;6.570;2023-05-10T12:48:34;101251.25;;;14.57;100.00
75221;BME280;63802;53.232;6.570;2023-05-10T12:51:00;101241.44;;;14.56;99.17
75221;BME280;63802;53.232;6.570;2023-05-10T12:53:26;101255.34;;;14.77;98.68
75221;BME280;63802;53.232;6.570;2023-05-10T12:55:51;101260.78;;;14.70;98.32
75221;BME280;63802;53.232;6.570;2023-05-10T12:58:17;101264.81;;;14.80;97.90
75221;BME280;63802;53.232;6.570;2023-05-10T13:00:42;101259.94;;;14.63;96.95
75221;BME280;63802;53.232;6.570;2023-05-10T13:03:09;101269.38;;;14.65;97.37
75221;BME280;63802;53.232;6.570;2023-05-10T13:05:35;101267.09;;;14.74;97.08
75221;BME280;63802;53.232;6.570;2023-05-10T13:08:00;101263.09;;;14.68;96.64
75221;BME280;63802;53.232;6.570;2023-05-10T13:10:28;101265.56;;;14.81;97.11
75221;BME280;63802;53.232;6.570;2023-05-10T13:12:54;101257.00;;;14.89;96.42
75221;BME280;63802;53.232;6.570;2023-05-10T13:15:19;101255.31;;;14.70;96.62
75221;BME280;63802;53.232;6.570;2023-05-10T13:17:45;101270.38;;;14.91;95.29
75221;BME280;63802;53.232;6.570;2023-05-10T13:20:10;101262.56;;;15.00;95.23
75221;BME280;63802;53.232;6.570;2023-05-10T13:22:36;101272.09;;;15.13;93.57
75221;BME280;63802;53.232;6.570;2023-05-10T13:25:01;101270.69;;;15.33;94.30
75221;BME280;63802;53.232;6.570;2023-05-10T13:27:27;101255.78;;;15.41;93.74